Time;durP1;ratioP1;P1;durP2;ratioP2;P2;SDS_P1;SDS_P2;PMS_P1;PMS_P2;Temp;Humidity;BMP_temperature;BMP_pressure;BME280_temperature;BME280_humidity;BME280_pressure;Samples;Min_cycle;Max_cycle;Signal;HPM_P1;HPM_P2
2021/10/07 00:02:03;;;;;;;6.38;2.60;;;;;;;10.91;70.17;93990.75;5071761;28;20119;-49
2021/10/07 00:04:29;;;;;;;6.10;2.08;;;;;;;10.98;70.31;94001.84;5072771;28;20032;-49
2021/10/07 00:06:55;;;;;;;5.93;2.42;;;;;;;11.06;70.15;94007.47;5072831;28;20060;-49
2021/10/07 00:09:20;;;;;;;3.17;1.90;;;;;;;10.90;69.81;94006.56;5072644;28;20040;-49
2021/10/07 00:11:46;;;;;;;5.40;2.50;;;;;;;10.79;70.22;94006.81;5072991;28;20043;-51
2021/10/07 00:14:11;;;;;;;9.07;4.43;;;;;;;10.70;71.00;93999.00;5072971;28;20017;-49
2021/10/07 00:16:37;;;;;;;3.85;3.00;;;;;;;10.62;71.56;93998.19;5072425;28;20548;-50
2021/10/07 00:19:03;;;;;;;5.40;3.20;;;;;;;10.51;72.00;94001.19;5072247;28;20020;-49
2021/10/07 00:21:29;;;;;;;3.63;3.10;;;;;;;10.29;72.15;93985.09;5072591;28;20098;-49
2021/10/07 00:26:20;;;;;;;5.55;2.50;;;;;;;10.32;72.71;93986.78;5072798;28;20025;-50
2021/10/07 00:28:45;;;;;;;8.40;2.85;;;;;;;10.40;72.32;93980.06;5072630;28;20028;-50
2021/10/07 00:31:17;;;;;;;7.70;2.90;;;;;;;10.28;72.30;93959.53;5072378;28;20399;-49
2021/10/07 00:36:40;;;;;;;4.43;2.08;;;;;;;10.28;72.07;93962.28;5070881;28;20056;-50
2021/10/07 00:39:05;;;;;;;5.38;2.63;;;;;;;10.12;72.73;93960.59;5072259;28;20032;-49
2021/10/07 00:41:32;;;;;;;3.20;2.00;;;;;;;10.21;72.86;93957.41;5072453;28;20020;-50
2021/10/07 00:44:05;;;;;;;6.95;2.65;;;;;;;10.22;72.73;93953.38;5070476;28;20462;-49
2021/10/07 00:46:31;;;;;;;6.55;2.33;;;;;;;10.23;72.77;93946.59;5072030;28;20025;-50
2021/10/07 00:48:59;;;;;;;7.25;2.65;;;;;;;10.21;72.13;93946.38;5071927;28;20107;-50
2021/10/07 00:51:26;;;;;;;4.95;2.58;;;;;;;10.11;72.75;93945.34;5072310;28;20031;-49
2021/10/07 00:53:51;;;;;;;4.47;2.47;;;;;;;9.98;72.93;93948.09;5072130;28;20020;-51
2021/10/07 00:56:19;;;;;;;3.40;2.10;;;;;;;10.03;72.69;93944.47;5072219;28;20518;-48
2021/10/07 00:58:45;;;;;;;3.08;2.25;;;;;;;10.07;72.82;93947.63;5072112;28;20462;-50
2021/10/07 01:01:10;;;;;;;4.70;2.40;;;;;;;10.03;73.09;93936.19;5071725;28;20021;-49
2021/10/07 01:03:36;;;;;;;2.83;2.03;;;;;;;10.07;72.53;93928.31;5072051;28;20077;-50
2021/10/07 01:06:01;;;;;;;5.22;2.50;;;;;;;10.13;72.86;93931.00;5071217;28;20424;-50
2021/10/07 01:08:27;;;;;;;2.25;1.52;;;;;;;10.15;72.68;93929.19;5071534;28;20025;-49
2021/10/07 01:10:53;;;;;;;5.30;2.55;;;;;;;10.09;72.69;93936.81;5070658;28;20108;-49
2021/10/07 01:13:18;;;;;;;5.18;1.98;;;;;;;10.09;72.88;93944.38;5071517;28;20039;-50
2021/10/07 01:15:44;;;;;;;3.45;2.10;;;;;;;9.99;73.05;93952.31;5071771;28;20043;-48
2021/10/07 01:18:10;;;;;;;6.63;2.17;;;;;;;10.01;72.92;93951.78;5071303;28;20085;-49
2021/10/07 01:20:37;;;;;;;2.90;2.08;;;;;;;9.92;73.34;93947.44;5071031;28;20024;-49
2021/10/07 01:23:03;;;;;;;3.00;2.20;;;;;;;9.89;73.47;93929.97;5071167;28;20110;-50
2021/10/07 01:25:32;;;;;;;4.47;2.20;;;;;;;9.99;72.72;93941.28;5071287;28;20029;-49
2021/10/07 01:27:58;;;;;;;4.03;1.95;;;;;;;9.94;72.80;93922.84;5071469;28;20025;-50
2021/10/07 01:30:23;;;;;;;7.28;2.10;;;;;;;9.96;72.97;93920.31;5070966;28;20023;-49
2021/10/07 01:32:49;;;;;;;19.30;3.75;;;;;;;9.91;72.85;93915.63;5071494;28;20032;-51
2021/10/07 01:35:14;;;;;;;2.88;1.92;;;;;;;9.72;73.18;93899.22;5070252;28;20393;-50
2021/10/07 01:37:40;;;;;;;4.80;2.20;;;;;;;9.75;72.86;93924.97;5071331;28;20397;-50
2021/10/07 01:40:08;;;;;;;5.35;2.35;;;;;;;9.72;73.39;93917.78;5071100;28;20416;-50
2021/10/07 01:42:33;;;;;;;5.25;2.17;;;;;;;9.62;73.53;93919.47;5071003;28;20495;-49
2021/10/07 01:44:59;;;;;;;2.05;1.50;;;;;;;9.59;73.69;93918.56;5070989;28;20099;-50
2021/10/07 01:47:24;;;;;;;3.28;1.60;;;;;;;9.62;73.53;93922.97;5070931;28;20409;-49
2021/10/07 01:49:50;;;;;;;5.97;2.30;;;;;;;9.62;73.37;93920.22;5070989;28;20491;-50
2021/10/07 01:52:15;;;;;;;6.55;2.72;;;;;;;9.67;73.56;93924.91;5069720;28;20060;-50
2021/10/07 01:54:41;;;;;;;5.20;2.05;;;;;;;9.63;73.37;93932.00;5070609;28;20035;-50
2021/10/07 01:57:06;;;;;;;3.22;2.10;;;;;;;9.69;73.52;93938.16;5069974;28;20028;-49
2021/10/07 01:59:32;;;;;;;3.60;2.10;;;;;;;9.68;73.39;93925.66;5070614;28;20033;-49
2021/10/07 02:01:57;;;;;;;3.30;2.13;;;;;;;9.68;73.73;93928.41;5070471;28;20028;-49
2021/10/07 02:04:22;;;;;;;4.78;2.22;;;;;;;9.66;73.58;93923.41;5070674;28;20025;-48
2021/10/07 02:06:48;;;;;;;3.33;2.17;;;;;;;9.57;73.45;93928.63;5070513;28;20036;-49
2021/10/07 02:09:13;;;;;;;3.60;1.92;;;;;;;9.56;73.90;93927.13;5070462;28;20029;-48
2021/10/07 02:11:39;;;;;;;3.40;2.60;;;;;;;9.60;73.70;93924.78;5070452;28;20021;-51
2021/10/07 02:14:04;;;;;;;2.92;1.55;;;;;;;9.60;73.68;93924.78;5070428;28;20020;-51
2021/10/07 02:16:31;;;;;;;2.92;2.03;;;;;;;9.63;73.58;93930.00;5070798;28;20040;-49
2021/10/07 02:18:57;;;;;;;8.80;2.42;;;;;;;9.61;73.39;93935.28;5070319;28;20027;-49
2021/10/07 02:21:23;;;;;;;3.60;1.80;;;;;;;9.75;73.69;93938.78;5070486;28;20052;-49
2021/10/07 02:23:49;;;;;;;4.07;2.05;;;;;;;9.83;73.03;93934.84;5070668;28;20464;-49
2021/10/07 02:26:14;;;;;;;5.05;2.08;;;;;;;9.85;72.62;93935.03;5070700;28;20037;-49
2021/10/07 02:28:40;;;;;;;4.65;2.00;;;;;;;9.93;72.18;93935.16;5070531;28;20132;-50
2021/10/07 02:31:05;;;;;;;3.15;2.28;;;;;;;9.99;72.52;93933.00;5070597;28;20028;-50
2021/10/07 02:33:31;;;;;;;11.52;2.10;;;;;;;9.91;72.53;93910.13;5070323;28;20033;-49
2021/10/07 02:35:56;;;;;;;8.32;2.67;;;;;;;10.08;71.63;93926.31;5070283;28;20028;-50
2021/10/07 02:38:22;;;;;;;9.85;2.45;;;;;;;10.15;71.73;93929.19;5070506;28;20488;-49
2021/10/07 02:40:47;;;;;;;4.70;2.92;;;;;;;10.18;71.37;93917.06;5070523;28;20093;-50
2021/10/07 02:43:13;;;;;;;5.57;3.47;;;;;;;10.23;70.92;93918.97;5070465;28;20393;-49
2021/10/07 02:45:38;;;;;;;4.38;2.85;;;;;;;10.27;71.06;93921.41;5070339;28;20035;-49
2021/10/07 02:48:04;;;;;;;5.45;2.92;;;;;;;10.21;71.35;93916.03;5070002;28;20123;-51
2021/10/07 02:50:29;;;;;;;4.57;3.00;;;;;;;10.20;71.31;93911.75;5070130;28;20086;-49
2021/10/07 02:52:55;;;;;;;6.95;3.08;;;;;;;10.29;71.94;93905.06;5070416;28;20036;-50
2021/10/07 02:55:21;;;;;;;10.02;4.05;;;;;;;10.32;71.37;93909.50;5070017;28;20032;-49
2021/10/07 02:57:47;;;;;;;5.15;2.97;;;;;;;10.30;71.11;93901.03;5070055;28;20036;-50
2021/10/07 03:00:15;;;;;;;7.50;2.70;;;;;;;10.20;71.72;93894.50;5070005;28;20020;-50
2021/10/07 03:02:40;;;;;;;8.48;3.80;;;;;;;10.22;71.77;93889.91;5070243;28;20063;-49
2021/10/07 03:05:06;;;;;;;7.20;3.85;;;;;;;10.25;71.68;93888.84;5070060;28;20024;-49
2021/10/07 03:07:32;;;;;;;6.72;3.60;;;;;;;10.19;71.62;93879.19;5071824;28;20174;-49
2021/10/07 03:09:57;;;;;;;4.72;3.25;;;;;;;10.30;71.28;93896.25;5074120;28;20024;-49
2021/10/07 03:12:23;;;;;;;4.70;3.55;;;;;;;10.27;71.50;93899.31;5073801;28;20020;-49
2021/10/07 03:14:48;;;;;;;4.43;3.20;;;;;;;10.22;71.78;93900.94;5074079;28;20085;-50
2021/10/07 03:17:14;;;;;;;8.57;4.03;;;;;;;10.21;72.13;93896.72;5073993;28;20524;-50
2021/10/07 03:19:39;;;;;;;5.50;3.35;;;;;;;10.10;72.69;93894.16;5073315;28;20039;-49
2021/10/07 03:22:06;;;;;;;5.75;3.75;;;;;;;10.19;72.44;93902.03;5073643;28;20313;-50
2021/10/07 03:24:31;;;;;;;8.77;4.50;;;;;;;10.32;71.95;93896.47;5073613;28;20032;-49
2021/10/07 03:26:57;;;;;;;5.05;3.00;;;;;;;10.32;71.57;93896.47;5073524;28;20024;-49
2021/10/07 03:29:22;;;;;;;9.20;3.53;;;;;;;10.37;71.31;93898.34;5073401;28;20035;-50
2021/10/07 03:31:48;;;;;;;5.22;2.80;;;;;;;10.35;71.19;93889.13;5073429;28;20028;-49
2021/10/07 03:34:13;;;;;;;6.68;3.50;;;;;;;10.24;71.45;93870.06;5073412;28;20078;-50
2021/10/07 03:36:39;;;;;;;5.60;3.22;;;;;;;10.39;71.49;93892.28;5073573;28;20035;-50
2021/10/07 03:39:05;;;;;;;5.28;2.78;;;;;;;10.39;70.51;93893.03;5073358;28;20567;-49
2021/10/07 03:41:31;;;;;;;9.85;3.72;;;;;;;10.39;71.01;93892.28;5073561;28;20059;-50
2021/10/07 03:43:56;;;;;;;4.85;2.63;;;;;;;10.34;70.95;93884.88;5073551;28;20405;-49
2021/10/07 03:46:22;;;;;;;4.50;2.75;;;;;;;10.34;70.35;93893.16;5073130;28;20522;-50
2021/10/07 03:48:47;;;;;;;3.65;2.72;;;;;;;10.39;70.33;93893.03;5072989;28;20036;-49
2021/10/07 03:51:13;;;;;;;7.07;3.35;;;;;;;10.43;70.26;93896.22;5073372;28;20024;-51
2021/10/07 03:53:38;;;;;;;7.28;3.20;;;;;;;10.28;70.70;93884.25;5072936;28;20119;-50
2021/10/07 03:56:04;;;;;;;6.47;3.40;;;;;;;10.48;70.34;93905.63;5073284;28;20031;-50
2021/10/07 03:58:29;;;;;;;8.50;2.80;;;;;;;10.52;69.54;93915.06;5072939;28;20642;-49
2021/10/07 04:00:55;;;;;;;7.55;2.92;;;;;;;10.54;70.17;93915.28;5072925;28;20024;-49
2021/10/07 04:03:20;;;;;;;7.93;2.80;;;;;;;10.54;69.14;93914.53;5072850;28;20028;-49
2021/10/07 04:05:47;;;;;;;6.32;2.80;;;;;;;10.59;68.51;93908.88;5073110;28;20037;-51
2021/10/07 04:08:13;;;;;;;6.70;2.85;;;;;;;10.50;68.29;93900.31;5072701;28;20054;-50
2021/10/07 04:10:39;;;;;;;5.65;2.53;;;;;;;10.43;68.43;93907.25;5072791;28;20071;-48
2021/10/07 04:13:04;;;;;;;6.78;2.78;;;;;;;10.23;69.36;93905.19;5072980;28;20032;-49
2021/10/07 04:15:30;;;;;;;7.55;2.88;;;;;;;10.21;70.19;93910.50;5073028;28;20032;-49
2021/10/07 04:17:55;;;;;;;24.65;4.47;;;;;;;10.22;70.14;93906.44;5072357;28;20067;-50
2021/10/07 04:20:21;;;;;;;5.82;2.85;;;;;;;10.20;69.70;93909.00;5071880;28;20078;-50
2021/10/07 04:22:46;;;;;;;6.43;2.85;;;;;;;10.14;70.19;93902.88;5072435;28;20060;-50
2021/10/07 04:25:12;;;;;;;5.55;2.40;;;;;;;10.24;70.00;93906.69;5072270;28;20032;-48
2021/10/07 04:27:38;;;;;;;7.15;2.70;;;;;;;10.27;69.82;93899.31;5072808;28;20495;-49
2021/10/07 04:30:06;;;;;;;6.68;2.78;;;;;;;10.25;70.13;93893.59;5072317;28;20020;-49
2021/10/07 04:32:31;;;;;;;4.05;2.40;;;;;;;10.21;69.67;93877.38;5072611;28;20039;-49
2021/10/07 04:34:57;;;;;;;5.95;2.60;;;;;;;10.26;70.09;93884.81;5072357;28;20415;-50
2021/10/07 04:37:22;;;;;;;8.93;2.65;;;;;;;10.32;70.31;93884.66;5072221;28;20044;-52
2021/10/07 04:39:48;;;;;;;6.28;2.83;;;;;;;10.32;70.59;93879.91;5072508;28;20016;-51
2021/10/07 04:42:14;;;;;;;7.28;2.60;;;;;;;10.36;69.27;93877.53;5070932;28;20447;-48
2021/10/07 04:44:39;;;;;;;5.15;2.45;;;;;;;10.41;69.52;93878.69;5072368;28;20028;-50
2021/10/07 04:47:05;;;;;;;4.75;2.30;;;;;;;10.38;69.31;93880.50;5072144;28;20037;-51
2021/10/07 04:49:30;;;;;;;11.70;2.83;;;;;;;10.37;69.88;93870.72;5071810;28;20051;-51
2021/10/07 04:51:56;;;;;;;3.97;2.00;;;;;;;10.42;69.51;93878.16;5072034;28;20063;-49
2021/10/07 04:54:21;;;;;;;4.30;2.60;;;;;;;10.49;70.28;93882.25;5071788;28;20148;-50
2021/10/07 04:56:47;;;;;;;7.57;2.38;;;;;;;10.51;69.25;93885.97;5072130;28;20032;-52
2021/10/07 04:59:12;;;;;;;7.68;2.65;;;;;;;10.59;69.15;93877.75;5072168;28;20381;-49
2021/10/07 05:01:38;;;;;;;6.57;2.38;;;;;;;10.63;69.39;93878.91;5071892;28;20031;-49
2021/10/07 05:04:03;;;;;;;7.05;2.70;;;;;;;10.68;70.15;93869.75;5071727;28;20032;-49
2021/10/07 05:06:30;;;;;;;6.63;3.22;;;;;;;10.79;69.11;93873.50;5072023;28;20039;-50
2021/10/07 05:08:56;;;;;;;7.30;4.15;;;;;;;10.72;69.57;93883.19;5071849;28;20043;-49
2021/10/07 05:11:21;;;;;;;12.80;2.90;;;;;;;10.71;68.53;93886.50;5071567;28;20542;-51
2021/10/07 05:13:47;;;;;;;7.93;3.10;;;;;;;10.73;68.46;93881.94;5071829;28;20024;-49
2021/10/07 05:16:12;;;;;;;5.30;2.75;;;;;;;10.71;68.62;93892.03;5071290;28;20040;-49
2021/10/07 05:18:38;;;;;;;4.97;2.90;;;;;;;10.66;68.39;93891.63;5071691;28;20047;-49
2021/10/07 05:21:03;;;;;;;9.93;3.35;;;;;;;10.63;68.82;93889.22;5070723;28;20047;-49
2021/10/07 05:23:29;;;;;;;5.55;3.13;;;;;;;10.64;68.47;93891.44;5071689;28;20021;-48
2021/10/07 05:25:55;;;;;;;8.18;5.40;;;;;;;10.62;69.00;93887.72;5071306;28;20028;-49
2021/10/07 05:28:20;;;;;;;9.27;2.78;;;;;;;10.62;69.05;93887.72;5071438;28;20027;-50
2021/10/07 05:30:46;;;;;;;7.65;2.78;;;;;;;10.64;67.94;93885.91;5071487;28;20663;-49
2021/10/07 05:33:11;;;;;;;7.25;2.88;;;;;;;10.68;67.96;93896.59;5071089;28;20032;-47
2021/10/07 05:35:37;;;;;;;12.15;3.22;;;;;;;10.64;68.55;93887.94;5071093;28;20027;-49
2021/10/07 05:38:02;;;;;;;4.43;3.17;;;;;;;10.66;68.57;93882.59;5071298;28;20044;-49
2021/10/07 05:40:28;;;;;;;6.95;3.42;;;;;;;10.68;68.79;93882.09;5069862;28;20124;-51
2021/10/07 05:42:53;;;;;;;8.90;3.05;;;;;;;10.80;68.75;93891.56;5070945;28;20028;-49
2021/10/07 05:45:19;;;;;;;12.27;2.88;;;;;;;10.84;68.52;93889.22;5070794;28;20044;-50
2021/10/07 05:47:44;;;;;;;4.90;3.13;;;;;;;10.90;68.74;93887.03;5071232;28;20020;-49
2021/10/07 05:50:11;;;;;;;9.07;3.70;;;;;;;10.88;67.40;93886.84;5071030;28;20099;-50
2021/10/07 05:52:37;;;;;;;6.95;3.30;;;;;;;10.76;67.67;93882.88;5070858;28;20692;-49
2021/10/07 05:55:04;;;;;;;10.13;3.50;;;;;;;10.89;67.70;93885.56;5070688;28;20028;-49
2021/10/07 05:57:30;;;;;;;8.50;3.90;;;;;;;10.93;67.39;93894.25;5071022;28;20024;-50
2021/10/07 05:59:55;;;;;;;6.95;3.75;;;;;;;10.94;66.84;93888.19;5070743;28;20047;-49
2021/10/07 06:02:21;;;;;;;5.45;3.50;;;;;;;10.74;67.06;93866.88;5070725;28;20046;-50
2021/10/07 06:04:46;;;;;;;5.75;3.65;;;;;;;10.86;67.40;93883.88;5070661;28;20464;-50
2021/10/07 06:07:11;;;;;;;6.72;2.92;;;;;;;10.97;66.63;93889.13;5070423;28;20032;-49
2021/10/07 06:09:37;;;;;;;10.02;3.55;;;;;;;11.08;67.36;93895.13;5070498;28;20028;-50
2021/10/07 06:12:03;;;;;;;7.90;3.55;;;;;;;11.05;66.94;93892.69;5070781;28;20111;-50
2021/10/07 06:14:28;;;;;;;6.13;3.55;;;;;;;10.87;67.26;93872.28;5070559;28;20058;-50
2021/10/07 06:16:54;;;;;;;7.82;3.38;;;;;;;10.90;66.64;93865.69;5070781;28;20544;-50
2021/10/07 06:19:22;;;;;;;6.35;3.30;;;;;;;10.98;65.58;93882.34;5070392;28;20039;-49
2021/10/07 06:21:48;;;;;;;3.72;2.38;;;;;;;10.97;66.10;93881.59;5070218;28;20041;-49
2021/10/07 06:24:14;;;;;;;7.90;2.72;;;;;;;11.02;66.78;93886.22;5070702;28;20437;-49
2021/10/07 06:26:39;;;;;;;4.70;2.90;;;;;;;11.06;65.86;93886.63;5070400;28;20027;-49
2021/10/07 06:29:05;;;;;;;17.50;7.15;;;;;;;11.06;67.04;93874.84;5070314;28;20047;-49
2021/10/07 06:31:31;;;;;;;10.35;4.47;;;;;;;11.08;66.34;93888.84;5070581;28;20016;-49
2021/10/07 06:33:56;;;;;;;6.95;2.55;;;;;;;10.96;65.91;93890.44;5070294;28;20028;-49
2021/10/07 06:36:22;;;;;;;3.53;2.17;;;;;;;10.90;66.40;93900.84;5070454;28;20027;-49
2021/10/07 06:38:47;;;;;;;5.47;2.10;;;;;;;10.90;66.80;93907.13;5070515;28;20082;-50
2021/10/07 06:41:14;;;;;;;7.25;3.85;;;;;;;10.88;67.17;93895.88;5070183;28;20024;-49
2021/10/07 06:43:40;;;;;;;39.95;5.90;;;;;;;10.98;67.40;93904.44;5070014;28;20043;-52
2021/10/07 06:46:05;;;;;;;5.00;2.50;;;;;;;10.90;66.93;93898.09;5070438;28;20033;-49
2021/10/07 06:48:30;;;;;;;6.85;2.58;;;;;;;11.07;67.57;93903.94;5069987;28;20016;-51
2021/10/07 06:50:56;;;;;;;5.05;2.30;;;;;;;11.14;65.82;93914.31;5070408;28;20031;-50
2021/10/07 06:53:22;;;;;;;7.25;2.70;;;;;;;11.20;66.06;93920.44;5070435;28;20051;-50
2021/10/07 06:55:47;;;;;;;3.75;2.38;;;;;;;11.20;65.69;93915.66;5070167;28;20021;-50
2021/10/07 06:58:13;;;;;;;7.05;2.15;;;;;;;11.15;66.22;93915.81;5070311;28;20110;-51
2021/10/07 07:00:40;;;;;;;8.75;2.75;;;;;;;11.14;66.56;93917.06;5069645;28;20017;-49
2021/10/07 07:03:05;;;;;;;8.85;2.63;;;;;;;11.22;67.21;93915.09;5069343;28;20042;-50
2021/10/07 07:05:31;;;;;;;10.93;4.88;;;;;;;11.25;66.94;93903.72;5070008;28;20025;-49
2021/10/07 07:07:56;;;;;;;9.50;2.40;;;;;;;11.26;66.25;93910.72;5070026;28;20048;-49
2021/10/07 07:10:22;;;;;;;8.95;2.55;;;;;;;11.14;65.70;93908.78;5069813;28;20507;-49
2021/10/07 07:12:49;;;;;;;6.70;2.35;;;;;;;10.97;66.44;93902.94;5069893;28;20063;-49
2021/10/07 07:15:15;;;;;;;5.97;2.80;;;;;;;11.01;66.49;93911.63;5069825;28;20028;-49
2021/10/07 07:17:40;;;;;;;6.10;1.88;;;;;;;11.01;66.51;93906.84;5069934;28;20035;-49
2021/10/07 07:20:07;;;;;;;5.80;2.15;;;;;;;10.90;67.32;93917.44;5069429;28;20012;-48
2021/10/07 07:22:33;;;;;;;9.93;2.42;;;;;;;10.92;67.55;93909.34;5069718;28;20091;-50
2021/10/07 07:24:58;;;;;;;6.25;4.00;;;;;;;10.89;68.08;93913.94;5070072;28;20044;-49
2021/10/07 07:27:24;;;;;;;8.18;2.60;;;;;;;10.81;68.12;93921.41;5069699;28;20510;-49
2021/10/07 07:29:50;;;;;;;3.55;2.08;;;;;;;10.82;68.15;93922.91;5069711;28;20033;-50
2021/10/07 07:32:16;;;;;;;14.60;8.57;;;;;;;10.79;68.49;93923.97;5068829;28;20027;-49
2021/10/07 07:34:41;;;;;;;9.80;2.75;;;;;;;10.67;69.09;93914.47;5070034;28;20032;-50
2021/10/07 07:37:07;;;;;;;5.80;1.90;;;;;;;10.68;68.77;93913.19;5069659;28;20025;-49
2021/10/07 07:39:33;;;;;;;9.35;4.47;;;;;;;10.60;69.45;93920.66;5069541;28;20029;-51
2021/10/07 07:41:59;;;;;;;3.10;1.98;;;;;;;10.67;68.64;93925.53;5069713;28;20031;-48
2021/10/07 07:44:25;;;;;;;7.38;2.75;;;;;;;10.63;69.71;93925.13;5069564;28;20025;-49
2021/10/07 07:46:51;;;;;;;4.80;3.63;;;;;;;10.63;69.94;93927.88;5069816;28;20029;-51
2021/10/07 07:49:16;;;;;;;5.82;2.30;;;;;;;10.63;69.42;93925.13;5069466;28;20033;-50
2021/10/07 07:51:42;;;;;;;13.20;2.17;;;;;;;10.45;69.63;93910.22;5069875;28;20031;-49
2021/10/07 07:54:07;;;;;;;3.15;1.40;;;;;;;10.60;69.19;93932.44;5071024;28;20036;-50
2021/10/07 07:56:33;;;;;;;6.90;2.53;;;;;;;10.73;69.28;93931.66;5073393;28;20113;-50
2021/10/07 07:58:59;;;;;;;5.85;2.10;;;;;;;10.83;69.37;93918.13;5073382;28;20035;-50
2021/10/07 08:01:24;;;;;;;3.63;2.08;;;;;;;11.05;66.90;93925.84;5073213;28;20108;-49
2021/10/07 08:03:50;;;;;;;4.15;2.20;;;;;;;11.15;66.91;93935.16;5072901;28;20063;-49
2021/10/07 08:06:16;;;;;;;4.55;2.33;;;;;;;11.28;66.69;93935.06;5072930;28;20035;-49
2021/10/07 08:08:41;;;;;;;6.38;2.33;;;;;;;11.48;66.39;93933.56;5073052;28;20032;-50
2021/10/07 08:11:07;;;;;;;7.25;2.70;;;;;;;11.63;65.59;93937.13;5073089;28;20462;-49
2021/10/07 08:13:32;;;;;;;6.85;1.98;;;;;;;11.54;63.66;93937.66;5073027;28;20552;-50
2021/10/07 08:15:58;;;;;;;9.93;2.60;;;;;;;11.54;64.26;93940.41;5073036;28;20107;-50
2021/10/07 08:18:23;;;;;;;5.55;1.85;;;;;;;11.35;63.22;93940.63;5072681;28;20028;-52
2021/10/07 08:20:52;;;;;;;4.32;2.00;;;;;;;11.41;63.37;93941.22;5072579;28;20028;-49
2021/10/07 08:23:17;;;;;;;4.80;2.73;;;;;;;11.39;64.41;93927.22;5072487;28;20059;-49
2021/10/07 08:25:43;;;;;;;8.57;3.03;;;;;;;11.40;64.61;93937.00;5072761;28;20028;-49
2021/10/07 08:28:09;;;;;;;5.93;2.63;;;;;;;11.40;64.15;93934.22;5072838;28;20024;-49
2021/10/07 08:30:36;;;;;;;6.75;2.45;;;;;;;11.45;63.96;93932.59;5072650;28;20028;-50
2021/10/07 08:33:02;;;;;;;7.32;2.17;;;;;;;11.43;64.48;93932.41;5072391;28;20032;-49
2021/10/07 08:35:27;;;;;;;4.63;1.88;;;;;;;11.40;63.27;93936.25;5072109;28;20041;-50
2021/10/07 08:37:53;;;;;;;6.40;2.60;;;;;;;11.44;63.83;93931.13;5072457;28;20281;-52
2021/10/07 08:40:18;;;;;;;9.77;2.70;;;;;;;11.35;63.61;93926.06;5072571;28;20031;-49
2021/10/07 08:42:44;;;;;;;15.40;2.90;;;;;;;11.51;64.70;93930.44;5072527;28;20468;-50
2021/10/07 08:45:11;;;;;;;9.75;3.95;;;;;;;11.56;63.69;93928.81;5072453;28;20025;-50
2021/10/07 08:47:45;;;;;;;5.28;2.88;;;;;;;11.55;62.97;93928.06;5072117;28;20101;-49
2021/10/07 08:50:12;;;;;;;9.38;2.88;;;;;;;11.66;63.73;93924.25;5072003;28;20042;-49
2021/10/07 08:52:37;;;;;;;6.35;4.07;;;;;;;11.75;63.91;93924.53;5072031;28;20025;-49
2021/10/07 08:55:03;;;;;;;12.70;3.17;;;;;;;11.73;63.52;93923.59;5071013;28;20056;-49
2021/10/07 08:57:29;;;;;;;8.35;2.53;;;;;;;11.78;63.95;93915.13;5072267;28;20024;-50
2021/10/07 08:59:54;;;;;;;8.77;2.17;;;;;;;11.86;62.54;93907.63;5071827;28;20492;-50
2021/10/07 09:02:39;;;;;;;7.68;2.58;;;;;;;11.89;61.64;93927.94;5072076;28;20031;-50
2021/10/07 09:05:26;;;;;;;5.03;2.67;;;;;;;11.66;62.42;93925.00;5071511;28;20025;-50
2021/10/07 09:08:04;;;;;;;7.20;3.75;;;;;;;11.59;63.36;93938.75;5071941;28;20572;-49
2021/10/07 09:10:55;;;;;;;9.87;3.27;;;;;;;11.47;63.17;93929.28;5071970;28;20035;-49
2021/10/07 09:13:25;;;;;;;7.43;2.20;;;;;;;11.44;62.23;93912.50;5071896;28;20112;-50
2021/10/07 09:15:56;;;;;;;7.70;3.15;;;;;;;11.49;62.04;93915.66;5071862;28;20094;-51
2021/10/07 09:18:23;;;;;;;5.88;3.00;;;;;;;11.51;61.85;93926.91;5071566;28;20024;-52
2021/10/07 09:20:50;;;;;;;6.10;2.47;;;;;;;11.46;61.56;93931.31;5071073;28;20526;-50
2021/10/07 09:23:22;;;;;;;9.27;3.20;;;;;;;11.38;62.93;93936.81;5071249;28;20478;-49
2021/10/07 09:26:07;;;;;;;5.53;2.42;;;;;;;11.46;62.79;93931.31;5071425;28;20025;-51
2021/10/07 09:28:51;;;;;;;6.47;2.05;;;;;;;11.44;62.34;93940.16;5071449;28;20027;-50
2021/10/07 09:31:24;;;;;;;7.70;2.75;;;;;;;11.47;62.63;93945.88;5071269;28;20054;-50
2021/10/07 09:33:56;;;;;;;5.20;2.40;;;;;;;11.31;62.50;93928.44;5071462;28;20051;-50
2021/10/07 09:36:21;;;;;;;8.88;2.67;;;;;;;11.41;62.59;93944.00;5071189;28;20709;-50
2021/10/07 09:38:49;;;;;;;10.27;2.33;;;;;;;11.53;62.22;93930.63;5071100;28;20024;-50
2021/10/07 09:41:23;;;;;;;3.53;2.42;;;;;;;11.76;62.94;93928.03;5071355;28;20034;-52
2021/10/07 09:43:54;;;;;;;9.32;2.38;;;;;;;12.07;60.79;93933.16;5071299;28;20032;-49
2021/10/07 09:46:41;;;;;;;10.45;4.93;;;;;;;12.30;61.24;93932.53;5071251;28;20043;-49
2021/10/07 09:49:11;;;;;;;9.38;2.28;;;;;;;12.43;59.02;93927.56;5071100;28;20032;-49
2021/10/07 09:51:42;;;;;;;14.93;3.95;;;;;;;12.43;59.83;93930.34;5071168;28;20060;-50
2021/10/07 09:54:08;;;;;;;5.40;2.72;;;;;;;12.66;59.12;93928.38;5071174;28;20024;-50
2021/10/07 09:56:34;;;;;;;4.78;2.20;;;;;;;12.77;57.70;93932.84;5070984;28;20029;-53
2021/10/07 09:59:08;;;;;;;5.90;2.13;;;;;;;12.69;58.11;93932.81;5070742;28;20034;-50
2021/10/07 10:01:35;;;;;;;8.77;2.17;;;;;;;12.71;56.55;93932.28;5070694;28;20059;-49
2021/10/07 10:04:01;;;;;;;2.75;1.75;;;;;;;12.66;56.14;93933.19;5069387;28;20068;-51
2021/10/07 10:06:27;;;;;;;8.20;2.20;;;;;;;12.62;56.36;93919.69;5070983;28;20047;-52
2021/10/07 10:08:52;;;;;;;10.60;4.70;;;;;;;12.63;57.51;93914.88;5069575;28;20024;-50
2021/10/07 10:11:20;;;;;;;6.22;3.55;;;;;;;12.39;57.97;93932.00;5070618;28;20408;-49
2021/10/07 10:13:48;;;;;;;9.63;3.25;;;;;;;12.25;59.11;93930.66;5070824;28;20070;-50
2021/10/07 10:16:15;;;;;;;39.42;9.10;;;;;;;12.11;57.95;93922.47;5070051;28;20032;-51
2021/10/07 10:18:40;;;;;;;7.55;3.05;;;;;;;12.12;59.29;93921.22;5070446;28;20033;-51
2021/10/07 10:21:07;;;;;;;7.22;3.40;;;;;;;12.16;58.75;93916.06;5068654;28;20028;-49
2021/10/07 10:23:37;;;;;;;5.07;2.40;;;;;;;12.19;59.90;93919.75;5069657;28;20059;-50
2021/10/07 10:26:07;;;;;;;;;;;;;;;12.28;59.88;93918.50;5069716;28;20519;-50
2021/10/07 10:28:35;;;;;;;8.32;5.50;;;;;;;12.11;60.13;93913.44;5070170;28;20589;-49
2021/10/07 10:31:06;;;;;;;8.65;3.25;;;;;;;11.97;60.81;93917.63;5070384;28;20035;-50
2021/10/07 10:33:36;;;;;;;5.85;3.38;;;;;;;12.01;60.92;93918.75;5070295;28;20526;-50
2021/10/07 10:36:02;;;;;;;12.02;3.17;;;;;;;12.06;60.69;93915.06;5070932;28;20024;-50
2021/10/07 10:38:28;;;;;;;42.05;7.55;;;;;;;12.02;60.55;93895.31;5069366;28;20025;-49
2021/10/07 10:40:55;;;;;;;7.25;2.58;;;;;;;11.85;60.51;93861.84;5070419;28;20024;-53
2021/10/07 10:43:26;;;;;;;9.88;2.88;;;;;;;12.17;60.15;93889.84;5069022;28;20036;-49
2021/10/07 10:45:51;;;;;;;8.07;2.42;;;;;;;12.23;58.86;93906.28;5070244;28;20652;-50
2021/10/07 10:48:41;;;;;;;5.82;3.00;;;;;;;12.21;59.53;93917.19;5070524;28;20166;-49
2021/10/07 10:51:11;;;;;;;7.15;2.97;;;;;;;12.30;59.50;93924.94;5070038;28;20032;-50
2021/10/07 10:53:49;;;;;;;3.55;2.40;;;;;;;12.26;58.80;93921.78;5070415;28;20059;-51
2021/10/07 10:56:15;;;;;;;7.10;2.70;;;;;;;12.27;58.90;93923.28;5070376;28;20465;-49
2021/10/07 10:58:40;;;;;;;6.32;2.50;;;;;;;12.33;58.06;93915.56;5070352;28;20519;-51
2021/10/07 11:01:13;;;;;;;4.63;3.63;;;;;;;12.33;59.41;93912.03;5070036;28;20028;-50
2021/10/07 11:03:39;;;;;;;5.82;2.70;;;;;;;12.46;59.70;93898.78;5070299;28;20020;-50
2021/10/07 11:06:09;;;;;;;4.53;2.45;;;;;;;12.60;57.74;93894.59;5069801;28;20178;-49
2021/10/07 11:08:40;;;;;;;8.25;2.80;;;;;;;12.67;57.41;93896.59;5070119;28;20021;-50
2021/10/07 11:11:08;;;;;;;5.07;2.72;;;;;;;12.58;57.25;93902.69;5070245;28;20413;-49
2021/10/07 11:13:34;;;;;;;2.95;2.05;;;;;;;12.29;57.22;93890.25;5069911;28;20017;-51
2021/10/07 11:16:06;;;;;;;2.92;2.40;;;;;;;12.39;56.65;93899.50;5070141;28;20025;-51
2021/10/07 11:18:35;;;;;;;3.92;2.50;;;;;;;12.40;56.83;93900.25;5070273;28;20103;-49
2021/10/07 11:21:08;;;;;;;5.40;2.67;;;;;;;12.43;58.00;93888.09;5069368;28;20492;-48
2021/10/07 11:23:36;;;;;;;5.47;2.70;;;;;;;12.52;57.48;93884.75;5069955;28;20120;-49
2021/10/07 11:26:03;;;;;;;7.95;2.65;;;;;;;12.69;56.50;93877.41;5070034;28;20044;-49
2021/10/07 11:28:33;;;;;;;11.35;4.45;;;;;;;12.86;57.60;93866.50;5071400;28;20028;-49
2021/10/07 11:31:00;;;;;;;5.55;2.33;;;;;;;12.95;56.27;93879.81;5073858;28;20032;-49
2021/10/07 11:33:25;;;;;;;7.20;2.47;;;;;;;13.05;55.13;93877.28;5073831;28;20035;-49
2021/10/07 11:36:05;;;;;;;6.13;2.72;;;;;;;13.00;53.32;93871.88;5073552;28;20111;-49
2021/10/07 11:38:31;;;;;;;4.18;2.45;;;;;;;13.02;52.90;93864.50;5073805;28;20036;-50